createdAt,value
2024-03-12T00:00:46.524Z,6.29
2024-03-12T00:01:46.245Z,6.36
2024-03-12T00:02:46.143Z,6.41
2024-03-12T00:03:46.091Z,6.44
2024-03-12T00:04:45.979Z,6.44
2024-03-12T00:05:45.907Z,6.52
2024-03-12T00:06:45.907Z,6.47
2024-03-12T00:07:45.729Z,6.47
2024-03-12T00:08:45.677Z,6.48
2024-03-12T00:09:45.596Z,6.44
2024-03-12T00:10:45.491Z,6.50
2024-03-12T00:11:45.399Z,6.51
2024-03-12T00:12:45.473Z,6.54
2024-03-12T00:13:45.232Z,6.59
2024-03-12T00:14:45.137Z,6.59
2024-03-12T00:15:45.102Z,6.55
2024-03-12T00:16:44.975Z,6.52
2024-03-12T00:17:44.920Z,6.51
2024-03-12T00:18:44.822Z,6.63
2024-03-12T00:19:44.718Z,6.57
2024-03-12T00:20:44.634Z,6.60
2024-03-12T00:21:44.595Z,6.63
2024-03-12T00:22:44.473Z,6.59
2024-03-12T00:23:44.384Z,6.54
2024-03-12T00:24:44.383Z,6.62
2024-03-12T00:25:44.220Z,6.68
2024-03-12T00:26:46.490Z,6.62
2024-03-12T00:27:44.082Z,6.70
2024-03-12T00:28:43.971Z,6.59
2024-03-12T00:29:43.878Z,6.60
2024-03-12T00:30:43.821Z,6.69
2024-03-12T00:31:43.715Z,6.66
2024-03-12T00:32:43.672Z,6.63
2024-03-12T00:33:43.619Z,6.66
2024-03-12T00:34:43.464Z,6.65
2024-03-12T00:35:43.376Z,6.66
2024-03-12T00:36:43.395Z,6.68
2024-03-12T00:37:43.208Z,6.57
2024-03-12T00:38:43.141Z,6.63
2024-03-12T00:39:43.084Z,6.50
2024-03-12T00:40:43.000Z,6.44
2024-03-12T00:41:42.898Z,6.52
2024-03-12T00:42:42.858Z,6.41
2024-03-12T00:43:42.714Z,6.36
2024-03-12T00:44:42.668Z,6.33
2024-03-12T00:45:42.784Z,6.37
2024-03-12T00:46:42.494Z,6.32
2024-03-12T00:47:42.585Z,6.34
2024-03-12T00:48:42.357Z,6.34
2024-03-12T00:49:42.245Z,6.32
2024-03-12T00:50:42.130Z,6.34
2024-03-12T00:51:42.100Z,6.34
2024-03-12T00:52:41.958Z,6.34
2024-03-12T00:53:41.882Z,6.17
2024-03-12T00:54:41.816Z,6.22
2024-03-12T00:55:42.217Z,6.22
2024-03-12T00:56:41.657Z,6.26
2024-03-12T00:57:41.584Z,6.27
2024-03-12T00:58:41.453Z,6.26
2024-03-12T00:59:41.373Z,6.26
2024-03-12T01:00:41.998Z,6.17
2024-03-12T01:01:41.240Z,6.10
2024-03-12T01:02:41.119Z,6.04
2024-03-12T01:03:41.053Z,6.06
2024-03-12T01:04:40.948Z,5.95
2024-03-12T01:05:41.164Z,5.85
2024-03-12T01:06:40.797Z,5.89
2024-03-12T01:07:40.697Z,5.88
2024-03-12T01:08:40.612Z,5.86
2024-03-12T01:09:40.578Z,5.78
2024-03-12T01:10:40.738Z,5.81
2024-03-12T01:11:40.363Z,5.88
2024-03-12T01:12:40.357Z,5.81
2024-03-12T01:13:40.190Z,5.77
2024-03-12T01:14:40.104Z,5.85
2024-03-12T01:15:40.263Z,5.78
2024-03-12T01:16:39.940Z,5.83
2024-03-12T01:17:39.882Z,5.78
2024-03-12T01:18:39.787Z,5.75
2024-03-12T01:19:39.682Z,5.80
2024-03-12T01:20:39.605Z,5.75
2024-03-12T01:21:39.543Z,5.85
2024-03-12T01:22:39.433Z,5.81
2024-03-12T01:23:39.357Z,5.90
2024-03-12T01:24:39.282Z,5.81
2024-03-12T01:25:39.184Z,5.86
2024-03-12T01:26:39.106Z,5.72
2024-03-12T01:27:39.059Z,5.71
2024-03-12T01:28:38.950Z,5.70
2024-03-12T01:29:38.847Z,5.54
2024-03-12T01:30:38.808Z,5.62
2024-03-12T01:31:38.676Z,5.54
2024-03-12T01:32:38.596Z,5.45
2024-03-12T01:33:38.506Z,5.44
2024-03-12T01:34:38.492Z,5.44
2024-03-12T01:35:38.348Z,5.42
2024-03-12T01:36:38.275Z,5.38
2024-03-12T01:37:38.176Z,5.52
2024-03-12T01:38:38.082Z,5.42
2024-03-12T01:39:38.100Z,5.45
2024-03-12T01:40:37.943Z,5.42
2024-03-12T01:41:37.829Z,5.45
2024-03-12T01:42:37.792Z,5.41
2024-03-12T01:43:37.679Z,5.54
2024-03-12T01:44:37.636Z,5.57
2024-03-12T01:45:38.125Z,5.50
2024-03-12T01:46:37.427Z,5.41
2024-03-12T01:47:37.380Z,5.57
2024-03-12T01:48:37.284Z,5.49
2024-03-12T01:49:37.158Z,5.54
2024-03-12T01:50:37.084Z,5.44
2024-03-12T01:51:37.078Z,5.41
2024-03-12T01:52:36.918Z,5.31
2024-03-12T01:53:36.827Z,5.16
2024-03-12T01:54:36.758Z,5.21
2024-03-12T01:55:36.662Z,5.11
2024-03-12T01:56:36.569Z,5.05
2024-03-12T01:57:36.541Z,5.02
2024-03-12T01:58:36.401Z,5.03
2024-03-12T01:59:36.337Z,4.93
2024-03-12T02:00:36.269Z,4.93
2024-03-12T02:01:36.243Z,4.87
2024-03-12T02:02:36.073Z,4.80
2024-03-12T02:03:36.024Z,4.87
2024-03-12T02:04:35.930Z,4.84
2024-03-12T02:05:35.811Z,4.88
2024-03-12T02:06:35.744Z,4.79
2024-03-12T02:07:35.637Z,4.73
2024-03-12T02:08:35.559Z,4.64
2024-03-12T02:09:35.541Z,4.68
2024-03-12T02:10:35.386Z,4.59
2024-03-12T02:11:35.331Z,4.55
2024-03-12T02:12:35.242Z,4.47
2024-03-12T02:13:35.135Z,4.52
2024-03-12T02:14:35.047Z,4.47
2024-03-12T02:15:35.052Z,4.50
2024-03-12T02:16:34.916Z,4.58
2024-03-12T02:17:34.832Z,4.58
2024-03-12T02:18:34.781Z,4.55
2024-03-12T02:19:34.627Z,4.69
2024-03-12T02:20:34.557Z,4.65
2024-03-12T02:21:34.464Z,4.69
2024-03-12T02:22:34.376Z,4.74
2024-03-12T02:23:34.287Z,4.72
2024-03-12T02:24:34.229Z,4.87
2024-03-12T02:25:34.142Z,4.85
2024-03-12T02:26:34.033Z,4.93
2024-03-12T02:27:33.962Z,4.88
2024-03-12T02:28:33.869Z,5.06
2024-03-12T02:29:33.779Z,4.95
2024-03-12T02:30:33.786Z,5.05
2024-03-12T02:31:33.714Z,5.10
2024-03-12T02:32:33.667Z,5.11
2024-03-12T02:33:33.457Z,5.16
2024-03-12T02:34:33.383Z,5.17
2024-03-12T02:35:33.270Z,5.17
2024-03-12T02:36:33.255Z,5.18
2024-03-12T02:37:33.113Z,5.28
2024-03-12T02:38:33.016Z,5.34
2024-03-12T02:39:32.953Z,5.29
2024-03-12T02:40:32.854Z,5.31
2024-03-12T02:41:32.764Z,5.28
2024-03-12T02:42:32.701Z,5.32
2024-03-12T02:43:32.598Z,5.31
2024-03-12T02:44:32.509Z,5.36
2024-03-12T02:45:32.482Z,5.29
2024-03-12T02:46:32.350Z,5.21
2024-03-12T02:47:32.284Z,5.32
2024-03-12T02:48:32.209Z,5.28
2024-03-12T02:49:32.095Z,5.26
2024-03-12T02:50:31.999Z,5.32
2024-03-12T02:51:31.931Z,5.36
2024-03-12T02:52:31.825Z,5.32
2024-03-12T02:53:31.750Z,5.28
2024-03-12T02:54:31.712Z,5.36
2024-03-12T02:55:31.585Z,5.35
2024-03-12T02:56:31.492Z,5.35
2024-03-12T02:57:31.443Z,5.45
2024-03-12T02:58:31.330Z,5.47
2024-03-12T02:59:31.239Z,5.57
2024-03-12T03:00:31.203Z,5.53
2024-03-12T03:01:31.197Z,5.52
2024-03-12T03:02:30.997Z,5.56
2024-03-12T03:03:30.931Z,5.62
2024-03-12T03:04:30.862Z,5.59
2024-03-12T03:05:30.726Z,5.59
2024-03-12T03:06:30.662Z,5.60
2024-03-12T03:07:30.563Z,5.65
2024-03-12T03:08:30.481Z,5.67
2024-03-12T03:09:30.402Z,5.80
2024-03-12T03:10:30.314Z,5.81
2024-03-12T03:11:30.267Z,5.86
2024-03-12T03:12:30.145Z,5.86
2024-03-12T03:13:30.055Z,5.86
2024-03-12T03:14:29.987Z,5.81
2024-03-12T03:15:29.973Z,5.93
2024-03-12T03:16:29.804Z,6.00
2024-03-12T03:17:29.787Z,6.00
2024-03-12T03:18:29.788Z,6.08
2024-03-12T03:19:29.563Z,6.06
2024-03-12T03:20:29.490Z,6.18
2024-03-12T03:21:29.413Z,6.11
2024-03-12T03:22:29.475Z,6.14
2024-03-12T03:23:29.211Z,6.15
2024-03-12T03:24:29.181Z,6.13
2024-03-12T03:25:29.038Z,6.13
2024-03-12T03:26:28.963Z,6.13
2024-03-12T03:27:28.892Z,6.07
2024-03-12T03:28:28.802Z,6.03
2024-03-12T03:29:28.704Z,5.97
2024-03-12T03:30:28.690Z,6.00
2024-03-12T03:31:28.534Z,6.00
2024-03-12T03:32:28.505Z,6.10
2024-03-12T03:33:28.426Z,5.92
2024-03-12T03:34:28.279Z,5.90
2024-03-12T03:35:28.194Z,5.93
2024-03-12T03:36:28.145Z,5.88
2024-03-12T03:37:28.024Z,5.83
2024-03-12T03:38:27.948Z,5.88
2024-03-12T03:39:27.938Z,5.78
2024-03-12T03:40:27.819Z,5.78
2024-03-12T03:41:27.695Z,5.59
2024-03-12T03:42:27.667Z,5.68
2024-03-12T03:43:27.537Z,5.39
2024-03-12T03:44:27.434Z,5.44
2024-03-12T03:45:27.387Z,5.41
2024-03-12T03:46:27.274Z,5.29
2024-03-12T03:47:27.213Z,5.32
2024-03-12T03:48:27.131Z,5.36
2024-03-12T03:49:27.014Z,5.28
2024-03-12T03:50:26.932Z,5.29
2024-03-12T03:51:26.882Z,5.38
2024-03-12T03:52:26.776Z,5.35
2024-03-12T03:53:26.676Z,5.36
2024-03-12T03:54:26.636Z,5.35
2024-03-12T03:55:26.501Z,5.38
2024-03-12T03:56:26.418Z,5.35
2024-03-12T03:57:26.379Z,5.35
2024-03-12T03:58:26.260Z,5.39
2024-03-12T03:59:26.190Z,5.36
2024-03-12T04:00:26.104Z,5.38
2024-03-12T04:01:26.055Z,5.24
2024-03-12T04:02:25.910Z,5.28
2024-03-12T04:03:25.827Z,5.32
2024-03-12T04:04:25.757Z,5.32
2024-03-12T04:05:25.661Z,5.24
2024-03-12T04:06:27.588Z,5.11
2024-03-12T04:07:25.496Z,5.05
2024-03-12T04:08:25.422Z,4.91
2024-03-12T04:09:25.323Z,4.91
2024-03-12T04:10:25.269Z,4.74
2024-03-12T04:11:25.211Z,4.69
2024-03-12T04:12:25.117Z,4.61
2024-03-12T04:13:24.982Z,4.56
2024-03-12T04:14:24.902Z,4.56
2024-03-12T04:15:24.842Z,4.56
2024-03-12T04:16:24.735Z,4.52
2024-03-12T04:17:24.651Z,4.48
2024-03-12T04:18:24.632Z,4.55
2024-03-12T04:19:24.491Z,4.50
2024-03-12T04:20:24.398Z,4.41
2024-03-12T04:21:24.362Z,4.47
2024-03-12T04:22:24.220Z,4.46
2024-03-12T04:23:24.138Z,4.46
2024-03-12T04:24:24.080Z,4.46
2024-03-12T04:25:23.993Z,4.34
2024-03-12T04:26:23.876Z,4.32
2024-03-12T04:27:23.800Z,4.22
2024-03-12T04:28:23.717Z,4.19
2024-03-12T04:29:23.622Z,4.05
2024-03-12T04:30:23.545Z,3.98
2024-03-12T04:31:23.457Z,4.07
2024-03-12T04:32:23.378Z,3.84
2024-03-12T04:33:23.300Z,3.93
2024-03-12T04:34:23.200Z,3.90
2024-03-12T04:35:23.115Z,3.86
2024-03-12T04:36:23.034Z,3.79
2024-03-12T04:37:22.943Z,3.74
2024-03-12T04:38:22.863Z,3.65
2024-03-12T04:39:22.784Z,3.69
2024-03-12T04:40:22.850Z,3.74
2024-03-12T04:41:22.640Z,3.66
2024-03-12T04:42:22.521Z,3.64
2024-03-12T04:43:22.456Z,3.51
2024-03-12T04:44:22.357Z,3.64
2024-03-12T04:45:22.285Z,3.61
2024-03-12T04:46:22.179Z,3.53
2024-03-12T04:47:22.110Z,3.48
2024-03-12T04:48:22.054Z,3.48
2024-03-12T04:49:21.927Z,3.51
2024-03-12T04:50:21.843Z,3.50
2024-03-12T04:51:21.765Z,3.46
2024-03-12T04:52:21.698Z,3.35
2024-03-12T04:53:23.484Z,3.39
2024-03-12T04:54:21.507Z,3.35
2024-03-12T04:55:21.429Z,3.28
2024-03-12T04:56:21.362Z,3.13
2024-03-12T04:57:21.298Z,3.22
2024-03-12T04:58:21.162Z,3.19
2024-03-12T04:59:21.087Z,3.27
2024-03-12T05:00:21.318Z,3.22
2024-03-12T05:01:21.008Z,3.24
2024-03-12T05:02:20.823Z,3.29
2024-03-12T05:03:20.736Z,3.28
2024-03-12T05:04:23.284Z,3.29
2024-03-12T05:05:20.617Z,3.29
2024-03-12T05:06:20.489Z,3.25
2024-03-12T05:07:20.394Z,3.25
2024-03-12T05:08:20.312Z,3.21
2024-03-12T05:09:20.266Z,3.17
2024-03-12T05:10:20.194Z,3.16
2024-03-12T05:11:20.097Z,3.19
2024-03-12T05:12:19.987Z,3.17
2024-03-12T05:13:19.886Z,3.19
2024-03-12T05:14:19.795Z,3.28
2024-03-12T05:15:19.719Z,3.16
2024-03-12T05:16:21.537Z,3.16
2024-03-12T05:17:19.554Z,3.16
2024-03-12T05:18:19.462Z,3.09
2024-03-12T05:19:19.405Z,3.04
2024-03-12T05:20:19.670Z,3.01
2024-03-12T05:21:19.200Z,3.01
2024-03-12T05:22:19.124Z,2.95
2024-03-12T05:23:19.032Z,2.95
2024-03-12T05:24:18.970Z,2.91
2024-03-12T05:25:18.868Z,2.88
2024-03-12T05:26:18.767Z,2.91
2024-03-12T05:27:18.712Z,2.88
2024-03-12T05:28:18.658Z,2.85
2024-03-12T05:29:18.509Z,2.81
2024-03-12T05:30:18.457Z,2.84
2024-03-12T05:31:18.348Z,2.86
2024-03-12T05:32:18.273Z,2.86
2024-03-12T05:33:18.204Z,2.84
2024-03-12T05:34:18.088Z,2.84
2024-03-12T05:35:18.017Z,2.88
2024-03-12T05:36:17.945Z,2.99
2024-03-12T05:37:17.929Z,2.93
2024-03-12T05:38:17.752Z,2.93
2024-03-12T05:39:17.665Z,3.01
2024-03-12T05:40:17.598Z,3.01
2024-03-12T05:41:17.501Z,2.89
2024-03-12T05:42:17.407Z,2.78
2024-03-12T05:43:17.374Z,2.84
2024-03-12T05:44:17.259Z,2.71
2024-03-12T05:45:17.156Z,2.68
2024-03-12T05:46:17.274Z,2.57
2024-03-12T05:47:16.976Z,2.67
2024-03-12T05:48:16.904Z,2.68
2024-03-12T05:49:16.988Z,2.63
2024-03-12T05:50:16.719Z,2.73
2024-03-12T05:51:16.637Z,2.63
2024-03-12T05:52:16.643Z,2.84
2024-03-12T05:53:16.458Z,2.77
2024-03-12T05:54:16.375Z,2.91
2024-03-12T05:55:16.417Z,2.85
2024-03-12T05:56:18.680Z,2.95
2024-03-12T05:57:16.118Z,2.95
2024-03-12T05:58:16.061Z,2.93
2024-03-12T05:59:15.943Z,3.01
2024-03-12T06:00:15.880Z,2.99
2024-03-12T06:01:15.934Z,2.95
2024-03-12T06:02:15.701Z,2.93
2024-03-12T06:03:15.596Z,3.01
2024-03-12T06:04:15.618Z,2.98
2024-03-12T06:05:15.429Z,3.01
2024-03-12T06:06:15.363Z,2.93
2024-03-12T06:07:16.828Z,2.98
2024-03-12T06:08:15.180Z,2.95
2024-03-12T06:09:15.085Z,2.96
2024-03-12T06:10:15.150Z,2.95
2024-03-12T06:11:15.101Z,2.93
2024-03-12T06:12:14.828Z,2.93
2024-03-12T06:13:14.802Z,3.01
2024-03-12T06:14:14.657Z,3.03
2024-03-12T06:15:14.563Z,3.10
2024-03-12T06:16:14.719Z,3.06
2024-03-12T06:17:14.403Z,3.17
2024-03-12T06:18:14.361Z,3.14
2024-03-12T06:19:14.329Z,3.28
2024-03-12T06:20:14.218Z,3.16
2024-03-12T06:21:14.056Z,3.25
2024-03-12T06:22:13.994Z,3.21
2024-03-12T06:23:13.883Z,3.16
2024-03-12T06:24:13.828Z,3.16
2024-03-12T06:25:14.018Z,3.14
2024-03-12T06:26:13.635Z,3.11
2024-03-12T06:27:13.565Z,3.24
2024-03-12T06:28:13.612Z,3.31
2024-03-12T06:29:13.368Z,3.50
2024-03-12T06:30:13.284Z,3.62
2024-03-12T06:31:13.322Z,3.68
2024-03-12T06:32:13.137Z,3.64
2024-03-12T06:33:13.569Z,3.69
2024-03-12T06:34:13.151Z,3.83
2024-03-12T06:35:12.864Z,3.84
2024-03-12T06:36:12.778Z,3.93
2024-03-12T06:37:12.726Z,4.00
2024-03-12T06:38:12.598Z,4.10
2024-03-12T06:39:12.508Z,4.20
2024-03-12T06:40:12.533Z,4.32
2024-03-12T06:41:12.378Z,4.32
2024-03-12T06:42:12.257Z,4.52
2024-03-12T06:43:12.278Z,4.58
2024-03-12T06:44:12.091Z,4.61
2024-03-12T06:45:12.007Z,4.72
2024-03-12T06:46:12.011Z,4.84
2024-03-12T06:47:11.823Z,4.87
2024-03-12T06:48:11.793Z,4.93
2024-03-12T06:49:11.729Z,5.02
2024-03-12T06:50:11.613Z,5.03
2024-03-12T06:51:11.482Z,5.11
2024-03-12T06:52:11.430Z,5.13
2024-03-12T06:53:11.334Z,5.23
2024-03-12T06:54:11.226Z,5.18
2024-03-12T06:55:13.245Z,5.26
2024-03-12T06:56:11.061Z,5.20
2024-03-12T06:57:10.973Z,5.26
2024-03-12T06:58:10.948Z,5.31
2024-03-12T06:59:10.797Z,5.32
2024-03-12T07:00:11.335Z,5.47
2024-03-12T07:01:10.744Z,5.45
2024-03-12T07:02:10.585Z,5.59
2024-03-12T07:03:10.475Z,5.60
2024-03-12T07:04:10.411Z,5.63
2024-03-12T07:05:10.290Z,5.71
2024-03-12T07:06:10.216Z,5.78
2024-03-12T07:07:10.172Z,5.83
2024-03-12T07:08:10.071Z,5.88
2024-03-12T07:09:11.226Z,6.07
2024-03-12T07:10:09.909Z,6.13
2024-03-12T07:11:09.885Z,6.26
2024-03-12T07:12:09.730Z,6.18
2024-03-12T07:13:09.725Z,6.34
2024-03-12T07:14:09.531Z,6.37
2024-03-12T07:15:09.443Z,6.41
2024-03-12T07:16:09.388Z,6.42
2024-03-12T07:17:09.319Z,6.48
2024-03-12T07:18:09.456Z,6.52
2024-03-12T07:19:09.178Z,6.59
2024-03-12T07:20:09.041Z,6.66
2024-03-12T07:21:08.935Z,6.63
2024-03-12T07:22:08.994Z,6.70
2024-03-12T07:23:08.764Z,6.66
2024-03-12T07:24:08.679Z,6.73
2024-03-12T07:25:08.772Z,6.73
2024-03-12T07:26:08.513Z,6.65
2024-03-12T07:27:08.420Z,6.54
2024-03-12T07:28:09.121Z,6.52
2024-03-12T07:29:08.254Z,6.51
2024-03-12T07:30:08.180Z,6.52
2024-03-12T07:31:08.098Z,6.62
2024-03-12T07:32:08.013Z,6.55
2024-03-12T07:33:07.992Z,6.55
2024-03-12T07:34:07.888Z,6.63
2024-03-12T07:35:07.831Z,6.57
2024-03-12T07:36:07.690Z,6.62
2024-03-12T07:37:07.746Z,6.60
2024-03-12T07:38:07.503Z,6.69
2024-03-12T07:39:07.411Z,6.60
2024-03-12T07:40:07.371Z,6.68
2024-03-12T07:41:07.236Z,6.68
2024-03-12T07:42:07.158Z,6.68
2024-03-12T07:43:07.156Z,6.68
2024-03-12T07:44:06.984Z,6.75
2024-03-12T07:45:06.909Z,6.75
2024-03-12T07:46:06.891Z,6.83
2024-03-12T07:47:06.748Z,6.84
2024-03-12T07:48:06.671Z,6.90
2024-03-12T07:49:07.452Z,7.03
2024-03-12T07:50:06.482Z,7.02
2024-03-12T07:51:06.396Z,7.16
2024-03-12T07:52:07.170Z,7.20
2024-03-12T07:53:06.229Z,7.34
2024-03-12T07:54:06.148Z,7.42
2024-03-12T07:55:06.117Z,7.55
2024-03-12T07:56:05.973Z,7.64
2024-03-12T07:57:05.907Z,7.64
2024-03-12T07:58:05.832Z,7.82
2024-03-12T07:59:05.749Z,7.81
2024-03-12T08:00:05.650Z,7.88
2024-03-12T08:01:05.633Z,7.96
2024-03-12T08:02:05.510Z,8.01
2024-03-12T08:03:05.389Z,8.11
2024-03-12T08:04:05.333Z,8.19
2024-03-12T08:05:05.215Z,8.18
2024-03-12T08:06:05.136Z,8.32
2024-03-12T08:07:05.139Z,8.29
2024-03-12T08:08:05.045Z,8.39
2024-03-12T08:09:04.896Z,8.51
2024-03-12T08:10:04.831Z,8.48
2024-03-12T08:11:04.728Z,8.60
2024-03-12T08:12:04.628Z,8.62
2024-03-12T08:13:04.554Z,8.66
2024-03-12T08:14:04.465Z,8.65
2024-03-12T08:15:04.381Z,8.62
2024-03-12T08:16:04.325Z,8.61
2024-03-12T08:17:04.216Z,8.79
2024-03-12T08:18:13.101Z,8.77
2024-03-12T08:19:04.126Z,8.82
2024-03-12T08:20:03.971Z,8.76
2024-03-12T08:21:03.889Z,8.80
2024-03-12T08:22:03.834Z,8.88
2024-03-12T08:23:03.720Z,8.80
2024-03-12T08:24:03.672Z,8.94
2024-03-12T08:25:03.594Z,9.05
2024-03-12T08:26:03.569Z,9.03
2024-03-12T08:27:03.390Z,9.13
2024-03-12T08:28:03.342Z,9.17
2024-03-12T08:29:03.301Z,9.19
2024-03-12T08:30:03.139Z,9.24
2024-03-12T08:31:08.741Z,9.32
2024-03-12T08:32:03.033Z,9.16
2024-03-12T08:33:02.967Z,9.27
2024-03-12T08:34:02.838Z,9.19
2024-03-12T08:35:02.711Z,9.24
2024-03-12T08:36:02.626Z,9.32
2024-03-12T08:37:02.605Z,9.28
2024-03-12T08:38:02.463Z,9.22
2024-03-12T08:39:02.385Z,9.20
2024-03-12T08:40:02.368Z,9.10
2024-03-12T08:41:02.225Z,9.14
2024-03-12T08:42:02.126Z,9.20
2024-03-12T08:43:05.037Z,9.35
2024-03-12T08:44:02.005Z,9.38
2024-03-12T08:45:01.878Z,9.37
2024-03-12T08:46:01.831Z,9.35
2024-03-12T08:47:01.717Z,9.37
2024-03-12T08:48:03.638Z,9.52
2024-03-12T08:49:01.572Z,9.45
2024-03-12T08:50:01.516Z,9.49
2024-03-12T08:51:01.392Z,9.40
2024-03-12T08:52:01.367Z,9.34
2024-03-12T08:53:01.224Z,9.34
2024-03-12T08:54:01.133Z,9.43
2024-03-12T08:55:01.120Z,9.46
2024-03-12T08:56:01.040Z,9.38
2024-03-12T08:57:00.894Z,9.43
2024-03-12T08:58:01.225Z,9.49
2024-03-12T08:59:00.727Z,9.52
2024-03-12T09:00:00.632Z,9.53
2024-03-12T09:01:00.641Z,9.52
2024-03-12T09:02:00.773Z,9.55
2024-03-12T09:03:00.454Z,9.63
2024-03-12T09:04:00.446Z,9.68
2024-03-12T09:05:00.214Z,9.68
2024-03-12T09:06:00.172Z,9.68
2024-03-12T09:07:00.157Z,9.67
2024-03-12T09:07:59.974Z,9.80
2024-03-12T09:08:59.937Z,9.78
2024-03-12T09:09:59.892Z,9.93
2024-03-12T09:10:59.743Z,9.92
2024-03-12T09:11:59.679Z,10.01
2024-03-12T09:12:59.600Z,10.00
2024-03-12T09:13:59.477Z,10.01
2024-03-12T09:14:59.388Z,10.00
2024-03-12T09:15:59.575Z,9.92
2024-03-12T09:16:59.227Z,9.90
2024-03-12T09:17:59.159Z,9.92
2024-03-12T09:18:59.119Z,9.97
2024-03-12T09:19:58.991Z,10.00
2024-03-12T09:20:58.897Z,9.89
2024-03-12T09:21:58.855Z,9.98
2024-03-12T09:22:58.735Z,9.90
2024-03-12T09:24:02.106Z,9.86
2024-03-12T09:24:58.590Z,9.93
2024-03-12T09:25:58.492Z,9.83
2024-03-12T09:26:58.400Z,9.82
2024-03-12T09:27:58.447Z,9.86
2024-03-12T09:28:58.243Z,9.82
2024-03-12T09:29:58.159Z,9.85
2024-03-12T09:30:58.114Z,9.74
2024-03-12T09:31:57.983Z,9.92
2024-03-12T09:32:57.939Z,9.89
2024-03-12T09:33:58.080Z,9.83
2024-03-12T09:34:57.743Z,9.90
2024-03-12T09:35:57.661Z,9.86
2024-03-12T09:36:57.660Z,9.88
2024-03-12T09:37:57.487Z,9.85
2024-03-12T09:38:57.417Z,9.93
2024-03-12T09:39:57.351Z,9.85
2024-03-12T09:40:57.239Z,9.85
2024-03-12T09:41:57.164Z,9.92
2024-03-12T09:42:57.128Z,9.89
2024-03-12T09:43:57.042Z,9.93
2024-03-12T09:44:56.914Z,9.90
2024-03-12T09:45:56.890Z,10.01
2024-03-12T09:46:56.758Z,9.98
2024-03-12T09:47:56.717Z,9.98
2024-03-12T09:48:56.655Z,9.97
2024-03-12T09:49:56.511Z,9.85
2024-03-12T09:50:56.426Z,9.89
2024-03-12T09:51:56.348Z,9.90
2024-03-12T09:52:56.248Z,9.92
2024-03-12T09:53:57.071Z,9.88
2024-03-12T09:54:56.139Z,9.82
2024-03-12T09:55:56.114Z,9.83
2024-03-12T09:56:55.930Z,9.82
2024-03-12T09:57:55.897Z,9.79
2024-03-12T09:58:55.762Z,9.79
2024-03-12T09:59:55.708Z,9.79
2024-03-12T10:00:55.659Z,9.80
2024-03-12T10:01:55.539Z,9.82
2024-03-12T10:02:55.454Z,9.82
2024-03-12T10:03:55.385Z,9.83
2024-03-12T10:04:55.261Z,9.88
2024-03-12T10:05:55.179Z,9.88
2024-03-12T10:06:55.144Z,9.78
2024-03-12T10:07:55.013Z,9.79
2024-03-12T10:08:54.935Z,9.79
2024-03-12T10:09:54.938Z,9.78
2024-03-12T10:10:54.823Z,9.80
2024-03-12T10:11:54.678Z,9.80
2024-03-12T10:12:54.656Z,9.82
2024-03-12T10:13:54.516Z,9.89
2024-03-12T10:14:54.437Z,9.82
2024-03-12T10:15:54.402Z,9.86
2024-03-12T10:16:54.285Z,9.82
2024-03-12T10:17:54.237Z,9.88
2024-03-12T10:18:54.168Z,9.88
2024-03-12T10:19:54.026Z,9.78
2024-03-12T10:20:53.941Z,9.82
2024-03-12T10:21:53.918Z,9.86
2024-03-12T10:22:53.775Z,9.90
2024-03-12T10:23:53.697Z,9.90
2024-03-12T10:24:53.677Z,9.89
2024-03-12T10:25:53.529Z,9.83
2024-03-12T10:26:53.448Z,9.90
2024-03-12T10:28:03.777Z,9.89
2024-03-12T10:28:53.320Z,9.79
2024-03-12T10:29:53.206Z,9.92
2024-03-12T10:30:53.123Z,9.78
2024-03-12T10:31:53.055Z,9.79
2024-03-12T10:32:52.996Z,9.79
2024-03-12T10:33:52.939Z,9.89
2024-03-12T10:34:52.794Z,9.90
2024-03-12T10:35:52.707Z,9.78
2024-03-12T10:36:52.673Z,9.86
2024-03-12T10:37:52.545Z,9.82
2024-03-12T10:38:52.462Z,9.86
2024-03-12T10:39:52.465Z,9.90
2024-03-12T10:40:52.316Z,9.86
2024-03-12T10:41:52.215Z,9.98
2024-03-12T10:42:52.142Z,9.89
2024-03-12T10:43:52.093Z,9.96
2024-03-12T10:44:51.963Z,9.92
2024-03-12T10:45:51.906Z,9.86
2024-03-12T10:46:51.805Z,9.93
2024-03-12T10:47:53.770Z,9.92
2024-03-12T10:48:51.988Z,9.98
2024-03-12T10:49:51.569Z,9.93
2024-03-12T10:50:51.471Z,9.88
2024-03-12T10:51:51.404Z,10.00
2024-03-12T10:52:51.314Z,9.93
2024-03-12T10:53:51.262Z,9.96
2024-03-12T10:55:02.407Z,9.93
2024-03-12T10:55:51.117Z,9.89
2024-03-12T10:56:50.975Z,10.00
2024-03-12T10:57:50.931Z,10.01
2024-03-12T10:58:50.815Z,10.04
2024-03-12T10:59:50.734Z,9.96
2024-03-12T11:00:50.674Z,10.03
2024-03-12T11:01:50.590Z,10.01
2024-03-12T11:02:50.490Z,10.03
2024-03-12T11:03:50.457Z,10.10
2024-03-12T11:04:50.321Z,10.04
2024-03-12T11:05:50.238Z,10.08
2024-03-12T11:06:50.194Z,10.15
2024-03-12T11:07:50.080Z,10.10
2024-03-12T11:08:49.999Z,10.08
2024-03-12T11:09:49.936Z,10.10
2024-03-12T11:10:49.867Z,10.10
2024-03-12T11:11:49.740Z,10.03
2024-03-12T11:12:49.732Z,10.08
2024-03-12T11:13:49.579Z,10.04
2024-03-12T11:14:49.494Z,10.15
2024-03-12T11:15:49.417Z,10.16
2024-03-12T11:16:49.329Z,10.10
2024-03-12T11:17:49.260Z,10.16
2024-03-12T11:18:49.388Z,10.25
2024-03-12T11:19:49.106Z,10.21
2024-03-12T11:20:49.004Z,10.26
2024-03-12T11:21:49.001Z,10.22
2024-03-12T11:22:48.848Z,10.34
2024-03-12T11:23:48.761Z,10.34
2024-03-12T11:24:48.718Z,10.36
2024-03-12T11:25:50.948Z,10.33
2024-03-12T11:26:48.509Z,10.34
2024-03-12T11:27:48.472Z,10.34
2024-03-12T11:28:48.384Z,10.31
2024-03-12T11:29:48.269Z,10.33
2024-03-12T11:30:48.210Z,10.22
2024-03-12T11:31:48.096Z,10.28
2024-03-12T11:32:48.041Z,10.25
2024-03-12T11:33:47.977Z,10.22
2024-03-12T11:34:47.848Z,10.22
2024-03-12T11:35:47.845Z,10.22
2024-03-12T11:36:48.044Z,10.19
2024-03-12T11:37:47.605Z,10.23
2024-03-12T11:38:47.564Z,10.26
2024-03-12T11:39:47.475Z,10.28
2024-03-12T11:40:47.358Z,10.22
2024-03-12T11:41:47.270Z,10.25
2024-03-12T11:42:47.226Z,10.29
2024-03-12T11:43:47.120Z,10.29
2024-03-12T11:44:47.130Z,10.33
2024-03-12T11:45:47.147Z,10.33
2024-03-12T11:46:46.895Z,10.34
2024-03-12T11:47:46.804Z,10.40
2024-03-12T11:48:47.056Z,10.39
2024-03-12T11:49:46.620Z,10.23
2024-03-12T11:50:46.556Z,10.33
2024-03-12T11:51:46.537Z,10.34
2024-03-12T11:52:46.381Z,10.22
2024-03-12T11:53:46.413Z,10.23
2024-03-12T11:54:46.338Z,10.28
2024-03-12T11:55:46.123Z,10.23
2024-03-12T11:56:46.044Z,10.40
2024-03-12T11:57:45.975Z,10.36
2024-03-12T11:58:46.052Z,10.28
2024-03-12T11:59:45.805Z,10.33
2024-03-12T12:00:45.779Z,10.23
2024-03-12T12:01:45.717Z,10.23
2024-03-12T12:02:45.550Z,10.26
2024-03-12T12:03:45.547Z,10.21
2024-03-12T12:04:45.392Z,10.22
2024-03-12T12:05:45.322Z,10.16
2024-03-12T12:06:45.249Z,10.13
2024-03-12T12:07:45.185Z,10.08
2024-03-12T12:08:53.094Z,10.18
2024-03-12T12:09:45.056Z,10.06
2024-03-12T12:10:44.901Z,10.15
2024-03-12T12:11:44.837Z,10.16
2024-03-12T12:12:44.808Z,10.11
2024-03-12T12:13:44.647Z,10.21
2024-03-12T12:14:44.567Z,10.16
2024-03-12T12:15:44.495Z,10.15
2024-03-12T12:16:44.402Z,10.15
2024-03-12T12:17:44.357Z,10.18
2024-03-12T12:18:44.262Z,10.10
2024-03-12T12:19:44.190Z,10.07
2024-03-12T12:20:45.064Z,10.10
2024-03-12T12:21:44.004Z,10.15
2024-03-12T12:22:43.907Z,10.13
2024-03-12T12:23:43.854Z,10.16
2024-03-12T12:24:43.753Z,10.18
2024-03-12T12:25:43.677Z,10.04
2024-03-12T12:26:43.579Z,10.04
2024-03-12T12:27:43.540Z,10.08
2024-03-12T12:28:43.412Z,10.06
2024-03-12T12:29:43.329Z,10.03
2024-03-12T12:30:43.274Z,10.04
2024-03-12T12:31:43.338Z,10.10
2024-03-12T12:32:43.179Z,10.11
2024-03-12T12:33:43.025Z,10.22
2024-03-12T12:34:42.922Z,10.13
2024-03-12T12:35:42.837Z,10.23
2024-03-12T12:36:42.785Z,10.22
2024-03-12T12:37:42.680Z,10.18
2024-03-12T12:38:42.590Z,10.10
2024-03-12T12:39:48.486Z,10.28
2024-03-12T12:40:42.461Z,10.23
2024-03-12T12:41:42.347Z,10.22
2024-03-12T12:42:42.303Z,10.33
2024-03-12T12:43:42.184Z,10.23
2024-03-12T12:44:42.122Z,10.28
2024-03-12T12:45:42.065Z,10.23
2024-03-12T12:46:41.945Z,10.21
2024-03-12T12:47:41.903Z,10.26
2024-03-12T12:48:43.740Z,10.22
2024-03-12T12:49:41.713Z,10.22
2024-03-12T12:50:41.607Z,10.37
2024-03-12T12:51:41.537Z,10.34
2024-03-12T12:52:41.446Z,10.23
2024-03-12T12:53:41.359Z,10.39
2024-03-12T12:54:43.116Z,10.37
2024-03-12T12:55:41.258Z,10.41
2024-03-12T12:56:41.113Z,10.41
2024-03-12T12:57:41.051Z,10.43
2024-03-12T12:58:40.948Z,10.51
2024-03-12T12:59:40.893Z,10.46
2024-03-12T13:00:42.189Z,10.49
2024-03-12T13:01:40.837Z,10.59
2024-03-12T13:02:42.134Z,10.51
2024-03-12T13:03:40.604Z,10.56
2024-03-12T13:04:40.452Z,10.58
2024-03-12T13:05:40.377Z,10.58
2024-03-12T13:06:40.299Z,10.58
2024-03-12T13:07:40.203Z,10.65
2024-03-12T13:08:40.137Z,10.67
2024-03-12T13:09:40.103Z,10.69
2024-03-12T13:10:40.035Z,10.67
2024-03-12T13:11:39.903Z,10.78
2024-03-12T13:12:41.975Z,10.87